Hartford, Michigan
Current Conditions -  °F | °C
As of 2:15 PM on Thursday 30 Oct 2014 (Local Time) from KLWA Reporting Station
Scattered Clouds Scattered Clouds  
Wind Chill: 10°   Ceiling: Unl
Heat Index: 10°   Visibility: 10mi
Dew Point:   Wind: 14mph
Humidity: 57%   Direction: 230°SW
Pressure: 30.09"   Gusts: 20mph
Location:  42.21°N, 86.17°W
Report Text: KLWA 301815Z AUTO 23012G17KT 10SM SCT036 SCT120 10/02 A3009 RMK AO2 T01010019
Loading
Personal Weather Stations






























Interactive Weather Map
Tropical Storm Tracking
New forecast layout! Learn more

10-Day Weather Forecast

Advertisements
Track Severe Weather on mobile